Time;durP1;ratioP1;P1;durP2;ratioP2;P2;SDS_P1;SDS_P2;PMS_P1;PMS_P2;Temp;Humidity;BMP_temperature;BMP_pressure;BME280_temperature;BME280_humidity;BME280_pressure;Samples;Min_cycle;Max_cycle;Signal;HPM_P1;HPM_P2
2021/04/18 00:00:17;;;;;;;5.40;3.50;;;10.40;35.90;;;;;;5092923;28;20111;-73
2021/04/18 00:02:47;;;;;;;8.25;2.88;;;10.30;36.10;;;;;;5092775;28;20020;-74
2021/04/18 00:05:14;;;;;;;4.88;2.97;;;10.30;36.10;;;;;;5089245;28;20099;-73
2021/04/18 00:07:40;;;;;;;4.53;3.07;;;10.30;36.30;;;;;;5088589;28;20476;-73
2021/04/18 00:10:07;;;;;;;6.18;2.63;;;10.20;36.20;;;;;;5092327;28;20348;-72
2021/04/18 00:12:43;;;;;;;6.30;2.92;;;10.20;36.30;;;;;;5093141;28;20031;-74
2021/04/18 00:15:12;;;;;;;7.00;3.78;;;10.20;36.30;;;;;;5061772;28;20106;-73
2021/04/18 00:17:38;;;;;;;4.65;3.35;;;10.10;36.50;;;;;;5074307;28;20103;-72
2021/04/18 00:20:26;;;;;;;4.20;3.22;;;10.10;36.30;;;;;;5092091;28;20483;-74
2021/04/18 00:22:52;;;;;;;8.85;3.20;;;10.20;36.50;;;;;;5091186;28;20035;-72
2021/04/18 00:25:28;;;;;;;3.45;2.72;;;10.10;36.40;;;;;;5084642;28;20089;-73
2021/04/18 00:27:53;;;;;;;6.85;3.63;;;10.00;36.50;;;;;;5091096;28;20377;-74
2021/04/18 00:30:21;;;;;;;5.25;2.65;;;10.00;36.60;;;;;;5096024;28;20028;-74
2021/04/18 00:32:48;;;;;;;4.55;2.97;;;10.00;36.70;;;;;;5109562;28;20015;-72
2021/04/18 00:35:16;;;;;;;3.63;2.33;;;10.00;37.00;;;;;;5094390;28;20120;-73
2021/04/18 00:37:42;;;;;;;6.28;2.58;;;10.00;36.70;;;;;;5092543;28;20020;-73
2021/04/18 00:40:14;;;;;;;4.28;3.00;;;9.90;36.90;;;;;;5073187;28;20046;-75
2021/04/18 00:42:40;;;;;;;7.47;2.97;;;9.90;37.00;;;;;;5092287;28;20381;-73
2021/04/18 00:45:10;;;;;;;5.78;2.70;;;9.90;37.10;;;;;;5092300;28;20028;-73
2021/04/18 00:47:42;;;;;;;6.97;3.17;;;9.90;37.10;;;;;;5078366;28;20408;-73
2021/04/18 00:50:09;;;;;;;5.10;3.05;;;9.90;37.00;;;;;;5092283;28;20059;-73
2021/04/18 00:52:35;;;;;;;;;;;9.80;37.10;;;;;;5092624;28;20058;-73
2021/04/18 00:55:03;;;;;;;4.25;2.50;;;9.80;36.90;;;;;;5092153;28;19963;-73
2021/04/18 00:57:29;;;;;;;5.18;4.05;;;9.70;37.30;;;;;;5092106;28;20039;-72
2021/04/18 00:59:55;;;;;;;6.05;3.45;;;9.80;37.30;;;;;;5073916;28;20484;-72
2021/04/18 01:02:21;;;;;;;5.25;2.92;;;9.70;37.40;;;;;;5092065;28;20534;-73
2021/04/18 01:04:47;;;;;;;3.95;3.40;;;9.70;37.50;;;;;;5092281;28;20047;-72
2021/04/18 01:07:12;;;;;;;5.40;2.22;;;9.60;37.60;;;;;;5092399;28;20067;-73
2021/04/18 01:09:38;;;;;;;5.72;2.67;;;9.60;37.70;;;;;;5092035;28;20495;-71
2021/04/18 01:12:05;;;;;;;4.72;2.70;;;9.60;37.80;;;;;;5092064;28;20028;-73
2021/04/18 01:14:30;;;;;;;4.70;3.20;;;9.50;38.00;;;;;;5073660;28;20024;-74
2021/04/18 01:16:56;;;;;;;4.85;2.90;;;9.50;38.00;;;;;;5092072;28;20032;-73
2021/04/18 01:19:22;;;;;;;5.13;3.20;;;9.50;38.10;;;;;;5091778;28;20047;-72
2021/04/18 01:21:48;;;;;;;4.43;3.00;;;9.40;38.10;;;;;;5092029;28;20016;-72
2021/04/18 01:24:13;;;;;;;8.00;4.43;;;9.40;38.30;;;;;;5091826;28;20481;-72
2021/04/18 01:26:39;;;;;;;4.30;2.90;;;9.30;38.30;;;;;;5091785;28;20028;-74
2021/04/18 01:29:05;;;;;;;5.78;3.30;;;9.30;38.30;;;;;;5091983;28;20112;-74
2021/04/18 01:31:32;;;;;;;7.63;3.17;;;9.30;38.50;;;;;;5091743;28;20024;-72
2021/04/18 01:33:58;;;;;;;4.07;3.30;;;9.30;38.60;;;;;;5091828;28;20016;-74
2021/04/18 01:36:25;;;;;;;5.60;3.55;;;9.30;38.70;;;;;;5091536;28;20513;-73
2021/04/18 01:38:51;;;;;;;6.40;3.83;;;9.20;38.70;;;;;;5091756;28;20020;-72
2021/04/18 01:41:17;;;;;;;5.60;3.60;;;9.20;39.00;;;;;;5091899;28;20027;-72
2021/04/18 01:43:43;;;;;;;7.00;3.58;;;9.10;39.00;;;;;;5091556;28;20487;-73
2021/04/18 01:46:10;;;;;;;4.78;3.10;;;9.10;39.10;;;;;;5073607;28;20059;-73
2021/04/18 01:48:37;;;;;;;7.53;3.00;;;9.10;39.10;;;;;;5091734;28;20027;-73
2021/04/18 01:51:07;;;;;;;6.17;3.50;;;9.10;39.20;;;;;;5094015;28;20020;-73
2021/04/18 01:53:34;;;;;;;3.88;3.33;;;9.00;39.20;;;;;;5095323;28;20314;-73
2021/04/18 01:56:00;;;;;;;7.35;3.47;;;9.00;39.40;;;;;;5095243;28;20028;-72
2021/04/18 01:58:26;;;;;;;6.18;3.40;;;9.00;39.60;;;;;;5095365;28;20103;-73
2021/04/18 02:00:52;;;;;;;5.85;3.40;;;9.00;39.60;;;;;;5095187;28;20024;-74
2021/04/18 02:03:18;;;;;;;8.52;3.55;;;9.00;40.30;;;;;;5095294;28;20020;-74
2021/04/18 02:05:44;;;;;;;6.10;3.60;;;8.90;39.60;;;;;;5095136;28;20067;-72
2021/04/18 02:08:10;;;;;;;4.82;3.15;;;8.90;39.80;;;;;;5096355;28;20024;-73
2021/04/18 02:10:36;;;;;;;5.60;3.85;;;8.90;39.80;;;;;;5096875;28;20028;-72
2021/04/18 02:13:01;;;;;;;7.03;3.72;;;8.90;39.90;;;;;;5096172;28;20154;-74
2021/04/18 02:15:27;;;;;;;4.93;3.28;;;8.80;40.00;;;;;;5076761;28;20071;-73
2021/04/18 02:17:53;;;;;;;10.05;3.92;;;8.80;39.90;;;;;;5094902;28;20034;-73
2021/04/18 02:20:20;;;;;;;7.53;3.53;;;8.80;40.20;;;;;;5094881;28;20542;-75
2021/04/18 02:22:46;;;;;;;4.72;3.50;;;8.80;40.20;;;;;;5094688;28;20016;-72
2021/04/18 02:25:13;;;;;;;7.25;3.55;;;8.70;40.10;;;;;;5094959;28;20431;-72
2021/04/18 02:27:40;;;;;;;10.60;4.40;;;8.70;40.20;;;;;;5094811;28;20039;-74
2021/04/18 02:30:07;;;;;;;4.55;3.50;;;8.70;40.30;;;;;;5076618;28;20036;-72
2021/04/18 02:32:33;;;;;;;8.63;3.20;;;8.70;40.30;;;;;;5094511;28;20031;-72
2021/04/18 02:35:00;;;;;;;8.05;3.88;;;8.70;40.30;;;;;;5088995;28;20030;-74
2021/04/18 02:37:26;;;;;;;5.43;3.53;;;8.70;40.40;;;;;;5094572;28;20024;-73
2021/04/18 02:39:51;;;;;;;5.00;3.00;;;8.60;40.20;;;;;;5094452;28;20032;-73
2021/04/18 02:42:17;;;;;;;5.47;3.10;;;8.70;40.30;;;;;;5094291;28;20100;-73
2021/04/18 02:44:43;;;;;;;8.32;3.33;;;8.70;40.40;;;;;;5094409;28;20411;-72
2021/04/18 02:47:09;;;;;;;4.28;2.25;;;8.70;40.60;;;;;;5094259;28;20024;-73
2021/04/18 02:49:35;;;;;;;4.90;2.72;;;8.60;40.30;;;;;;5094540;28;20515;-73
2021/04/18 02:52:01;;;;;;;9.32;3.35;;;8.60;40.50;;;;;;5093976;28;20110;-73
2021/04/18 02:54:26;;;;;;;9.32;2.80;;;8.70;40.30;;;;;;5094239;28;20532;-72
2021/04/18 02:56:52;;;;;;;4.43;2.22;;;8.70;40.70;;;;;;5094008;28;20039;-72
2021/04/18 02:59:18;;;;;;;6.03;3.33;;;8.70;40.60;;;;;;5094216;28;20020;-72
2021/04/18 03:01:44;;;;;;;4.45;2.67;;;8.70;40.60;;;;;;5093241;28;20028;-73
2021/04/18 03:04:10;;;;;;;6.05;2.10;;;8.70;40.60;;;;;;5093935;28;20126;-73
2021/04/18 03:06:36;;;;;;;5.55;2.40;;;8.80;40.40;;;;;;5094036;28;20024;-74
2021/04/18 03:09:03;;;;;;;5.80;2.42;;;8.70;40.30;;;;;;5093674;28;20024;-73
2021/04/18 03:11:29;;;;;;;6.15;1.77;;;8.80;40.40;;;;;;5093919;28;20028;-75
2021/04/18 03:13:54;;;;;;;3.53;1.67;;;8.80;40.20;;;;;;5093868;28;20032;-72
2021/04/18 03:16:22;;;;;;;3.58;1.95;;;8.70;40.30;;;;;;5094053;28;20040;-73
2021/04/18 03:18:47;;;;;;;5.15;2.08;;;8.80;40.40;;;;;;5093866;28;20044;-74
2021/04/18 03:21:13;;;;;;;4.75;2.30;;;8.80;40.40;;;;;;5093441;28;20070;-73
2021/04/18 03:23:39;;;;;;;4.57;2.25;;;8.80;40.40;;;;;;5075433;28;20026;-72
2021/04/18 03:26:05;;;;;;;5.03;2.50;;;8.90;40.40;;;;;;5093365;28;20054;-74
2021/04/18 03:28:32;;;;;;;4.90;2.35;;;8.90;40.30;;;;;;5075509;28;20020;-74
2021/04/18 03:30:58;;;;;;;6.00;3.13;;;9.00;40.10;;;;;;5075420;28;20028;-73
2021/04/18 03:33:25;;;;;;;5.68;2.78;;;9.00;40.30;;;;;;5093578;28;20023;-73
2021/04/18 03:35:51;;;;;;;6.60;2.55;;;9.00;40.00;;;;;;5093298;28;20032;-73
2021/04/18 03:38:17;;;;;;;2.80;1.90;;;9.00;39.90;;;;;;5093195;28;20086;-73
2021/04/18 03:40:43;;;;;;;8.45;3.30;;;9.00;39.90;;;;;;5093231;28;20122;-74
2021/04/18 03:43:09;;;;;;;3.08;1.95;;;9.00;39.90;;;;;;5075019;28;20123;-73
2021/04/18 03:45:36;;;;;;;7.40;4.40;;;9.00;40.10;;;;;;5093322;28;20103;-73
2021/04/18 03:48:02;;;;;;;5.35;2.55;;;9.00;40.30;;;;;;5075199;28;20066;-73
2021/04/18 03:50:28;;;;;;;5.50;2.38;;;9.10;40.50;;;;;;5093162;28;20081;-74
2021/04/18 03:52:56;;;;;;;6.57;3.08;;;9.20;40.10;;;;;;5075073;28;20020;-73
2021/04/18 03:55:24;;;;;;;5.40;3.50;;;9.30;40.20;;;;;;5074698;28;20768;-73
2021/04/18 03:57:50;;;;;;;12.13;5.93;;;9.30;40.00;;;;;;5074879;28;20020;-74
2021/04/18 04:00:17;;;;;;;4.75;2.65;;;9.30;40.00;;;;;;5092713;28;20030;-74
2021/04/18 04:02:42;;;;;;;9.30;5.45;;;9.40;39.80;;;;;;5074804;28;20392;-74
2021/04/18 04:05:09;;;;;;;11.60;2.72;;;9.30;39.90;;;;;;5092851;28;20107;-74
2021/04/18 04:07:35;;;;;;;5.55;3.58;;;9.30;39.80;;;;;;5092816;28;20065;-74
2021/04/18 04:10:01;;;;;;;11.13;2.42;;;9.30;40.00;;;;;;5092748;28;20474;-74
2021/04/18 04:12:28;;;;;;;4.07;2.83;;;9.30;39.80;;;;;;5092635;28;20150;-75
2021/04/18 04:14:54;;;;;;;9.70;3.90;;;9.40;39.80;;;;;;5092708;28;20021;-73
2021/04/18 04:17:20;;;;;;;7.20;2.88;;;9.50;39.80;;;;;;5092404;28;20035;-73
2021/04/18 04:19:46;;;;;;;7.65;3.25;;;9.50;39.40;;;;;;5092467;28;20111;-73
2021/04/18 04:22:11;;;;;;;4.22;2.28;;;9.60;39.90;;;;;;5092647;28;20157;-72
2021/04/18 04:24:37;;;;;;;4.47;2.65;;;9.70;39.20;;;;;;5092736;28;20016;-72
2021/04/18 04:27:03;;;;;;;4.43;2.58;;;9.70;39.00;;;;;;5092665;28;20389;-73
2021/04/18 04:29:29;;;;;;;7.28;3.38;;;9.80;39.40;;;;;;5092324;28;20012;-74
2021/04/18 04:31:55;;;;;;;7.25;2.42;;;9.90;39.10;;;;;;5092439;28;20027;-73
2021/04/18 04:34:21;;;;;;;5.60;2.47;;;9.90;38.70;;;;;;5070767;28;20420;-73
2021/04/18 04:36:46;;;;;;;7.53;2.88;;;10.30;38.90;;;;;;5090192;28;20032;-73
2021/04/18 04:39:12;;;;;;;6.05;2.95;;;10.90;38.30;;;;;;5092443;28;20025;-73
2021/04/18 04:41:38;;;;;;;8.18;3.10;;;11.50;37.10;;;;;;5092830;28;20111;-73
2021/04/18 04:44:04;;;;;;;7.00;3.53;;;12.10;36.70;;;;;;5101991;28;20099;-73
2021/04/18 04:46:30;;;;;;;6.93;3.10;;;12.50;35.00;;;;;;5098065;28;20017;-74
2021/04/18 04:48:56;;;;;;;5.13;2.75;;;12.80;34.40;;;;;;5097542;28;20016;-74
2021/04/18 04:51:22;;;;;;;5.90;3.92;;;13.00;34.20;;;;;;5098258;28;20393;-74
2021/04/18 04:53:48;;;;;;;4.00;1.92;;;13.30;33.40;;;;;;5101253;28;20137;-74
2021/04/18 04:56:14;;;;;;;4.40;2.40;;;13.50;32.70;;;;;;5099689;28;20035;-73
2021/04/18 04:58:40;;;;;;;8.98;3.63;;;13.40;32.80;;;;;;5093600;28;20016;-73
2021/04/18 05:01:05;;;;;;;7.53;2.70;;;13.50;33.00;;;;;;5101630;28;20484;-72
2021/04/18 05:03:31;;;;;;;4.68;2.50;;;13.80;32.30;;;;;;5097750;28;20020;-73
2021/04/18 05:05:57;;;;;;;4.95;2.47;;;14.10;31.50;;;;;;5103241;28;20495;-72
2021/04/18 05:08:23;;;;;;;9.93;3.05;;;14.30;31.60;;;;;;5079721;28;20031;-74
2021/04/18 05:10:49;;;;;;;8.90;3.25;;;14.70;31.30;;;;;;5083089;28;20103;-72
2021/04/18 05:13:15;;;;;;;9.38;3.85;;;15.10;30.80;;;;;;5097975;28;20023;-73
2021/04/18 05:15:40;;;;;;;5.78;2.50;;;15.60;30.00;;;;;;5080723;28;20036;-73
2021/04/18 05:18:06;;;;;;;8.40;3.10;;;15.40;29.80;;;;;;5101267;28;20122;-73
2021/04/18 05:20:32;;;;;;;7.57;2.63;;;15.30;30.00;;;;;;5097763;28;20032;-73
2021/04/18 05:22:59;;;;;;;6.32;2.72;;;15.80;30.00;;;;;;5098824;28;20043;-74
2021/04/18 05:25:25;;;;;;;5.05;2.83;;;15.80;29.60;;;;;;5099338;28;20036;-72
2021/04/18 05:27:51;;;;;;;4.35;2.67;;;15.90;29.70;;;;;;5100548;28;20093;-74
2021/04/18 05:30:17;;;;;;;5.65;2.38;;;15.70;29.40;;;;;;5103813;28;20016;-73
2021/04/18 05:32:43;;;;;;;8.30;2.88;;;15.50;29.50;;;;;;5103607;28;20059;-74
2021/04/18 05:35:10;;;;;;;4.57;2.58;;;16.00;29.60;;;;;;5097673;28;20023;-74
2021/04/18 05:37:36;;;;;;;4.10;2.78;;;16.80;28.90;;;;;;5096117;28;20028;-74
2021/04/18 05:40:02;;;;;;;6.50;2.72;;;17.20;28.30;;;;;;5095405;28;20036;-74
2021/04/18 05:42:28;;;;;;;8.27;3.00;;;17.30;28.10;;;;;;5095735;28;20020;-74
2021/04/18 05:44:54;;;;;;;5.80;4.18;;;16.60;28.10;;;;;;5095402;28;20585;-73
2021/04/18 05:47:20;;;;;;;4.95;2.10;;;15.70;29.40;;;;;;5077358;28;20389;-75
2021/04/18 05:49:46;;;;;;;8.57;3.15;;;15.70;29.60;;;;;;5095494;28;20028;-74
2021/04/18 05:52:13;;;;;;;5.40;2.47;;;16.20;29.30;;;;;;5095240;28;20099;-73
2021/04/18 05:54:39;;;;;;;4.38;2.50;;;16.00;29.10;;;;;;5095471;28;20024;-74
2021/04/18 05:57:05;;;;;;;6.22;2.67;;;15.70;29.30;;;;;;5076768;28;20102;-73
2021/04/18 05:59:31;;;;;;;15.13;3.13;;;15.10;29.80;;;;;;5095556;28;20030;-74
2021/04/18 06:01:57;;;;;;;7.35;2.70;;;15.10;30.00;;;;;;5094943;28;20456;-72
2021/04/18 06:04:23;;;;;;;10.02;3.05;;;15.70;29.90;;;;;;5095311;28;20016;-73
2021/04/18 06:06:49;;;;;;;10.45;3.35;;;16.10;29.20;;;;;;5095031;28;20138;-74
2021/04/18 06:09:14;;;;;;;9.57;2.83;;;16.30;29.00;;;;;;5094829;28;20107;-73
2021/04/18 06:11:40;;;;;;;10.55;2.53;;;16.30;29.00;;;;;;5094771;28;20020;-74
2021/04/18 06:14:06;;;;;;;9.55;3.53;;;16.00;29.00;;;;;;5104291;28;20068;-73
2021/04/18 06:16:33;;;;;;;19.77;5.90;;;15.60;29.70;;;;;;5098828;28;20447;-75
2021/04/18 06:18:59;;;;;;;11.23;3.05;;;15.40;29.70;;;;;;5095436;28;20044;-75
2021/04/18 06:21:25;;;;;;;3.28;2.20;;;15.60;29.90;;;;;;5102210;28;20035;-74
2021/04/18 06:23:51;;;;;;;8.18;3.88;;;16.30;29.30;;;;;;5101844;28;20020;-72
2021/04/18 06:26:17;;;;;;;5.95;2.40;;;17.20;28.50;;;;;;5106815;28;20519;-74
2021/04/18 06:28:42;;;;;;;7.53;3.20;;;18.30;27.70;;;;;;5085704;28;20020;-73
2021/04/18 06:31:08;;;;;;;9.52;2.97;;;19.80;26.40;;;;;;5104841;28;20098;-74
2021/04/18 06:33:34;;;;;;;7.57;3.05;;;20.30;25.50;;;;;;5102792;28;20032;-74
2021/04/18 06:36:00;;;;;;;6.40;2.75;;;19.20;25.60;;;;;;5089680;28;20123;-73
2021/04/18 06:38:26;;;;;;;11.23;3.40;;;18.20;26.70;;;;;;5094022;28;20330;-73
2021/04/18 06:40:53;;;;;;;7.60;2.45;;;17.80;27.00;;;;;;5089607;28;20024;-74
2021/04/18 06:43:21;;;;;;;9.90;2.45;;;19.20;27.00;;;;;;5093595;28;20036;-74
2021/04/18 06:45:55;;;;;;;4.63;2.22;;;20.70;25.20;;;;;;5090217;28;20043;-73
2021/04/18 06:48:22;;;;;;;14.73;2.78;;;21.50;24.50;;;;;;5094438;28;20369;-74
2021/04/18 06:50:49;;;;;;;10.18;3.78;;;22.20;24.20;;;;;;5100566;28;20016;-74
2021/04/18 06:53:16;;;;;;;6.88;2.75;;;23.20;23.70;;;;;;5105593;28;20036;-73
2021/04/18 06:55:43;;;;;;;10.95;2.35;;;23.60;23.00;;;;;;5110146;28;20519;-74
2021/04/18 06:58:11;;;;;;;;;;;23.70;22.90;;;;;;5103808;28;20020;-73
2021/04/18 07:00:45;;;;;;;6.20;2.00;;;24.20;22.80;;;;;;5106987;28;20014;-76
2021/04/18 07:03:14;;;;;;;8.68;2.55;;;23.70;22.50;;;;;;5089412;28;20491;-80
2021/04/18 07:05:47;;;;;;;16.27;3.67;;;23.60;22.40;;;;;;5105963;28;20094;-79
2021/04/18 07:08:34;;;;;;;11.35;3.10;;;23.00;22.70;;;;;;5088230;28;20115;-77
2021/04/18 07:11:19;;;;;;;10.38;3.95;;;23.70;22.80;;;;;;5100695;28;20019;-77
2021/04/18 07:13:47;;;;;;;6.80;2.33;;;23.60;22.50;;;;;;5075443;28;20523;-77
2021/04/18 07:16:26;;;;;;;23.80;8.02;;;23.20;22.70;;;;;;5094823;28;20031;-82
2021/04/18 07:18:53;;;;;;;6.10;2.50;;;23.70;22.80;;;;;;5094022;28;20497;-76
2021/04/18 07:21:21;;;;;;;4.07;1.92;;;23.60;22.70;;;;;;5094559;28;20020;-80
2021/04/18 07:23:47;;;;;;;12.93;3.80;;;24.00;22.30;;;;;;5099489;28;20024;-79
2021/04/18 07:26:23;;;;;;;6.83;2.30;;;24.20;22.60;;;;;;5103117;28;20023;-78
2021/04/18 07:29:09;;;;;;;15.30;3.70;;;25.20;22.00;;;;;;5097581;28;20020;-77
2021/04/18 07:31:35;;;;;;;11.93;2.60;;;26.10;21.60;;;;;;5093443;28;20036;-75
2021/04/18 07:34:09;;;;;;;10.27;2.50;;;26.30;21.40;;;;;;5097557;28;20093;-77
2021/04/18 07:36:38;;;;;;;5.70;1.95;;;26.20;20.90;;;;;;5096368;28;20450;-77
2021/04/18 07:39:07;;;;;;;10.52;2.20;;;24.50;21.60;;;;;;5111572;28;20015;-77
2021/04/18 07:41:36;;;;;;;9.52;2.33;;;23.60;22.10;;;;;;5104731;28;20088;-77
2021/04/18 07:44:02;;;;;;;6.97;2.25;;;23.20;22.40;;;;;;5111792;28;20434;-77
2021/04/18 07:46:28;;;;;;;4.53;2.53;;;23.30;22.40;;;;;;5110098;28;20028;-77
2021/04/18 07:48:56;;;;;;;12.13;2.42;;;23.20;22.50;;;;;;5104773;28;20490;-77
2021/04/18 07:51:24;;;;;;;9.88;2.75;;;24.00;22.10;;;;;;5104370;28;20481;-78
2021/04/18 07:53:50;;;;;;;5.93;1.88;;;23.60;21.90;;;;;;5107748;28;20024;-76
2021/04/18 07:56:16;;;;;;;6.88;2.10;;;24.00;21.90;;;;;;5109757;28;20040;-75
2021/04/18 07:58:44;;;;;;;9.05;2.08;;;23.70;21.50;;;;;;5105555;28;20035;-76
2021/04/18 08:01:10;;;;;;;6.32;2.03;;;22.80;22.10;;;;;;5108433;28;20031;-74
2021/04/18 08:03:40;;;;;;;4.38;1.95;;;23.00;22.10;;;;;;5110606;28;20047;-75
2021/04/18 08:06:06;;;;;;;7.75;2.88;;;23.60;22.10;;;;;;5104144;28;20028;-75
2021/04/18 08:08:43;;;;;;;4.07;1.97;;;23.70;21.80;;;;;;5103876;28;20026;-77
2021/04/18 08:11:14;;;;;;;5.10;1.77;;;23.20;21.60;;;;;;5088578;28;20263;-76
2021/04/18 08:13:52;;;;;;;8.13;2.25;;;23.10;22.00;;;;;;5104260;28;20024;-75
2021/04/18 08:16:30;;;;;;;11.48;2.17;;;23.70;21.90;;;;;;5089587;28;20397;-76
2021/04/18 08:19:09;;;;;;;15.50;4.55;;;24.40;21.60;;;;;;5100652;28;20082;-76
2021/04/18 08:21:40;;;;;;;9.27;2.05;;;25.20;21.60;;;;;;5101681;28;20043;-76
2021/04/18 08:24:16;;;;;;;5.55;2.40;;;26.00;20.70;;;;;;5075696;28;20036;-75
2021/04/18 08:27:02;;;;;;;8.10;2.40;;;25.70;20.80;;;;;;5090585;28;20442;-75
2021/04/18 08:29:29;;;;;;;6.60;1.95;;;26.70;20.80;;;;;;5104622;28;20028;-75
2021/04/18 08:32:13;;;;;;;12.25;3.25;;;26.50;20.40;;;;;;5106577;28;20020;-75
2021/04/18 08:34:43;;;;;;;16.98;3.58;;;26.60;20.70;;;;;;5096507;28;20423;-75
2021/04/18 08:37:19;;;;;;;14.13;3.25;;;26.30;20.60;;;;;;5078378;28;20074;-76
2021/04/18 08:39:45;;;;;;;;;;;26.20;20.50;;;;;;5092767;28;20721;-75
2021/04/18 08:42:26;;;;;;;19.03;3.43;;;26.70;21.10;;;;;;5074053;28;19908;-75
2021/04/18 08:44:53;;;;;;;5.40;2.38;;;26.40;20.60;;;;;;5092245;28;20035;-75
2021/04/18 08:47:20;;;;;;;11.45;2.70;;;26.70;20.70;;;;;;5092248;28;20358;-76
2021/04/18 08:49:49;;;;;;;4.63;2.42;;;27.90;20.80;;;;;;5092327;28;20036;-76
2021/04/18 08:52:25;;;;;;;3.20;1.70;;;29.10;20.00;;;;;;5092174;28;20481;-75
2021/04/18 08:54:52;;;;;;;4.38;1.95;;;27.60;19.60;;;;;;5092141;28;20084;-75
2021/04/18 08:57:29;;;;;;;5.22;2.50;;;26.30;20.30;;;;;;5091889;28;20035;-75
2021/04/18 09:00:13;;;;;;;4.13;2.08;;;24.90;21.00;;;;;;5092802;28;20024;-75
2021/04/18 09:02:39;;;;;;;5.90;3.47;;;24.60;21.30;;;;;;5082712;28;20023;-77
2021/04/18 09:05:11;;;;;;;12.10;4.70;;;25.20;21.30;;;;;;5097044;28;20027;-75
2021/04/18 09:07:41;;;;;;;8.93;2.80;;;25.50;21.00;;;;;;5095960;28;20023;-75
2021/04/18 09:10:09;;;;;;;11.63;2.80;;;24.20;21.10;;;;;;5096206;28;20127;-76
2021/04/18 09:12:35;;;;;;;12.32;4.38;;;22.40;22.00;;;;;;5096289;28;20024;-76
2021/04/18 09:15:02;;;;;;;6.85;2.97;;;20.80;23.70;;;;;;5096526;28;20433;-77
2021/04/18 09:17:30;;;;;;;19.67;7.90;;;19.70;24.50;;;;;;5095905;28;20059;-75
2021/04/18 09:19:58;;;;;;;8.43;2.95;;;18.90;25.20;;;;;;5075897;28;20524;-75
2021/04/18 09:22:34;;;;;;;14.48;4.28;;;18.30;25.40;;;;;;5075798;28;20425;-75
2021/04/18 09:25:13;;;;;;;15.75;4.25;;;18.00;26.00;;;;;;5075674;28;20021;-76
2021/04/18 09:27:44;;;;;;;13.80;4.05;;;18.90;25.90;;;;;;5075131;28;20497;-77
2021/04/18 09:30:13;;;;;;;2.58;1.63;;;19.70;25.20;;;;;;5075604;28;20024;-74
2021/04/18 09:32:50;;;;;;;7.53;2.47;;;20.40;24.70;;;;;;5075279;28;20103;-75
2021/04/18 09:35:17;;;;;;;;;;;20.10;24.40;;;;;;5075790;28;20025;-75
2021/04/18 09:37:51;;;;;;;7.75;2.47;;;20.00;24.50;;;;;;5075589;28;19916;-76
2021/04/18 09:40:19;;;;;;;6.38;2.10;;;19.30;24.80;;;;;;5075009;28;20052;-76
2021/04/18 09:42:48;;;;;;;11.20;2.83;;;19.10;25.10;;;;;;5075264;28;20024;-75
2021/04/18 09:45:15;;;;;;;6.75;2.50;;;19.70;25.00;;;;;;5074942;28;20021;-77
2021/04/18 09:47:42;;;;;;;;;;;19.70;25.00;;;;;;5057886;28;20071;-75
2021/04/18 09:50:20;;;;;;;8.63;3.22;;;20.10;25.70;;;;;;5074755;28;20281;-76
2021/04/18 09:52:46;;;;;;;11.10;3.33;;;21.60;24.50;;;;;;5074819;28;20103;-75
2021/04/18 09:55:24;;;;;;;5.43;2.65;;;22.60;23.70;;;;;;5074772;28;20024;-74
2021/04/18 09:57:52;;;;;;;7.97;2.33;;;22.90;23.00;;;;;;5074861;28;20470;-76
2021/04/18 10:00:35;;;;;;;12.25;3.58;;;22.90;22.80;;;;;;5074817;28;20029;-75
2021/04/18 10:03:03;;;;;;;5.43;3.35;;;23.10;22.80;;;;;;5074681;28;20071;-76
2021/04/18 10:05:31;;;;;;;3.53;1.58;;;23.20;22.80;;;;;;5074548;28;20069;-74
2021/04/18 10:08:20;;;;;;;7.80;2.63;;;22.80;22.40;;;;;;5057079;28;20078;-76
2021/04/18 10:10:58;;;;;;;10.85;2.30;;;22.50;23.20;;;;;;5074294;28;20123;-74
2021/04/18 10:13:45;;;;;;;4.53;2.72;;;22.20;23.10;;;;;;5074826;28;20191;-77
2021/04/18 10:16:13;;;;;;;13.27;3.80;;;21.90;23.60;;;;;;5074375;28;20504;-75
2021/04/18 10:18:42;;;;;;;6.95;3.72;;;21.00;23.90;;;;;;5065800;28;20055;-74
2021/04/18 10:21:18;;;;;;;6.68;2.45;;;20.40;24.60;;;;;;5094913;28;20055;-76
2021/04/18 10:23:44;;;;;;;6.43;1.90;;;20.10;24.90;;;;;;5093446;28;20027;-74
2021/04/18 10:26:10;;;;;;;5.53;2.67;;;19.80;24.90;;;;;;5088567;28;20090;-76
2021/04/18 10:28:36;;;;;;;9.05;3.03;;;19.60;25.50;;;;;;5094597;28;20027;-75
2021/04/18 10:31:02;;;;;;;18.30;3.70;;;19.60;25.60;;;;;;5093160;28;20020;-75
2021/04/18 10:33:28;;;;;;;7.03;2.58;;;19.30;25.60;;;;;;5094621;28;20052;-75
2021/04/18 10:35:55;;;;;;;8.25;2.90;;;18.90;26.20;;;;;;5093518;28;20542;-76
2021/04/18 10:38:21;;;;;;;6.25;2.50;;;18.80;26.40;;;;;;5092314;28;20024;-76
2021/04/18 10:40:47;;;;;;;8.43;2.55;;;18.60;26.20;;;;;;5094862;28;20090;-76
2021/04/18 10:43:13;;;;;;;8.68;2.70;;;18.50;26.40;;;;;;5085997;28;20029;-81
2021/04/18 10:45:39;;;;;;;7.85;3.13;;;18.50;26.30;;;;;;5098011;28;20093;-80
2021/04/18 10:48:06;;;;;;;9.55;3.90;;;18.60;26.60;;;;;;5085909;28;20549;-82
2021/04/18 10:50:39;;;;;;;9.80;3.35;;;18.30;26.90;;;;;;5113068;27;20733;-83
2021/04/18 10:53:05;;;;;;;10.85;3.40;;;18.10;26.90;;;;;;5095718;28;20035;-82
2021/04/18 10:55:30;;;;;;;10.40;3.55;;;17.90;27.20;;;;;;5083175;28;20058;-81
2021/04/18 10:57:56;;;;;;;10.85;3.30;;;17.90;27.30;;;;;;5095049;28;20056;-82
2021/04/18 11:00:22;;;;;;;12.05;2.95;;;17.90;27.30;;;;;;5090768;28;20016;-81
2021/04/18 11:02:48;;;;;;;9.63;3.70;;;17.80;27.20;;;;;;5101357;28;20425;-82
2021/04/18 11:05:14;;;;;;;13.15;3.45;;;17.60;27.60;;;;;;5113511;28;20035;-80
2021/04/18 11:07:40;;;;;;;9.95;3.65;;;17.60;27.80;;;;;;5105143;28;20020;-81
2021/04/18 11:10:07;;;;;;;16.65;3.95;;;17.60;27.70;;;;;;5102678;28;20024;-84
2021/04/18 11:12:33;;;;;;;17.95;5.22;;;17.30;27.90;;;;;;5107679;28;20019;-83
2021/04/18 11:14:59;;;;;;;14.70;6.15;;;17.10;29.30;;;;;;5105564;28;20049;-83
2021/04/18 11:17:27;;;;;;;13.93;6.30;;;16.50;30.20;;;;;;5098268;28;20039;-84
2021/04/18 11:19:53;;;;;;;10.02;5.95;;;16.00;32.00;;;;;;5111572;28;20043;-81
2021/04/18 11:22:20;;;;;;;20.52;7.15;;;15.10;33.90;;;;;;5099724;27;20553;-81
2021/04/18 11:24:46;;;;;;;11.75;6.82;;;14.50;35.00;;;;;;5114546;28;20441;-81
2021/04/18 11:27:12;;;;;;;13.70;7.40;;;14.20;35.70;;;;;;5105578;28;20028;-79
2021/04/18 11:29:42;;;;;;;12.65;8.18;;;14.20;36.10;;;;;;5106553;28;20072;-81
2021/04/18 11:32:11;;;;;;;18.35;9.20;;;14.20;36.30;;;;;;5094585;28;20060;-77
2021/04/18 11:34:37;;;;;;;13.50;7.50;;;14.20;36.90;;;;;;5097475;28;20107;-79
2021/04/18 11:37:03;;;;;;;19.10;9.23;;;14.00;37.40;;;;;;5111909;28;20119;-77
2021/04/18 11:39:30;;;;;;;13.73;7.63;;;13.80;38.00;;;;;;5111400;28;20119;-79
2021/04/18 11:41:56;;;;;;;14.07;8.35;;;13.70;38.60;;;;;;5103367;28;20023;-75
2021/04/18 11:44:22;;;;;;;11.88;7.28;;;13.80;38.90;;;;;;5084233;28;20028;-77
2021/04/18 11:46:48;;;;;;;10.68;7.25;;;13.70;39.40;;;;;;5106554;28;20020;-78
2021/04/18 11:49:15;;;;;;;11.48;8.13;;;13.70;39.70;;;;;;5108938;28;20335;-81
2021/04/18 11:51:41;;;;;;;16.73;8.32;;;13.70;40.10;;;;;;5106504;28;20023;-79
2021/04/18 11:54:08;;;;;;;22.55;8.68;;;13.90;40.00;;;;;;5109194;28;20075;-76
2021/04/18 11:56:35;;;;;;;18.65;8.23;;;14.20;40.40;;;;;;5106236;28;20032;-78
2021/04/18 11:59:02;;;;;;;13.90;8.98;;;14.20;40.60;;;;;;5106963;28;20020;-79
2021/04/18 12:01:28;;;;;;;21.80;8.93;;;14.30;40.90;;;;;;5106541;28;20027;-86
2021/04/18 12:03:54;;;;;;;11.55;7.63;;;14.10;41.10;;;;;;5104486;28;20176;-81
2021/04/18 12:06:20;;;;;;;17.00;8.60;;;13.90;41.70;;;;;;5108468;28;20026;-81
2021/04/18 12:08:45;;;;;;;19.80;7.88;;;13.70;42.30;;;;;;5087500;28;20016;-82
2021/04/18 12:11:11;;;;;;;19.40;9.00;;;13.80;42.40;;;;;;5093600;28;20020;-81
2021/04/18 12:13:37;;;;;;;21.85;9.35;;;14.00;42.40;;;;;;5094026;28;20054;-81
2021/04/18 12:16:04;;;;;;;21.60;9.25;;;14.00;42.70;;;;;;5104530;28;20032;-88
2021/04/18 12:18:30;;;;;;;19.92;9.68;;;14.10;42.70;;;;;;5101309;28;20067;-86
2021/04/18 12:20:55;;;;;;;10.95;6.88;;;14.20;43.60;;;;;;5100642;28;20023;-85
2021/04/18 12:23:21;;;;;;;9.32;6.28;;;14.20;43.30;;;;;;5099426;28;20085;-80
2021/04/18 12:25:47;;;;;;;15.50;6.63;;;14.20;43.40;;;;;;5092550;28;20028;-79
2021/04/18 12:28:13;;;;;;;12.90;6.60;;;14.20;43.50;;;;;;5096878;28;20027;-78
2021/04/18 12:30:40;;;;;;;15.68;6.53;;;14.40;43.40;;;;;;5096366;28;20027;-80
2021/04/18 12:33:06;;;;;;;13.30;5.53;;;14.40;43.00;;;;;;5093981;28;20024;-79
2021/04/18 12:35:35;;;;;;;7.13;4.97;;;14.40;43.20;;;;;;5095929;28;20031;-79
2021/04/18 12:38:02;;;;;;;20.00;6.38;;;14.20;43.70;;;;;;5102435;28;20111;-80
2021/04/18 12:40:28;;;;;;;11.57;4.88;;;14.20;43.90;;;;;;5092252;28;20080;-79
2021/04/18 12:42:54;;;;;;;11.90;5.63;;;14.00;44.20;;;;;;5105837;28;20039;-79
2021/04/18 12:45:20;;;;;;;15.77;5.95;;;13.90;44.80;;;;;;5100292;28;20038;-77
2021/04/18 12:47:46;;;;;;;15.20;5.97;;;14.10;44.70;;;;;;5106557;28;20030;-77
2021/04/18 12:50:13;;;;;;;9.82;5.50;;;14.10;45.10;;;;;;5102766;28;20021;-76